sensor_id;sensor_type;location;lat;lon;timestamp;temperature;humidity
21849;DHT22;11089;49.852;19.700;2024-03-02T00:01:03;6.80;99.90
21849;DHT22;11089;49.852;19.700;2024-03-02T00:04:05;6.70;99.90
21849;DHT22;11089;49.852;19.700;2024-03-02T00:07:07;6.60;99.90
21849;DHT22;11089;49.852;19.700;2024-03-02T00:10:10;6.60;99.90
21849;DHT22;11089;49.852;19.700;2024-03-02T00:13:13;6.50;99.90
21849;DHT22;11089;49.852;19.700;2024-03-02T00:16:14;6.60;99.90
21849;DHT22;11089;49.852;19.700;2024-03-02T00:19:16;6.50;99.90
21849;DHT22;11089;49.852;19.700;2024-03-02T00:22:17;6.50;99.90
21849;DHT22;11089;49.852;19.700;2024-03-02T00:25:18;6.40;99.90
21849;DHT22;11089;49.852;19.700;2024-03-02T00:28:21;6.30;99.90
21849;DHT22;11089;49.852;19.700;2024-03-02T00:31:23;6.30;99.90
21849;DHT22;11089;49.852;19.700;2024-03-02T00:34:24;6.20;99.90
21849;DHT22;11089;49.852;19.700;2024-03-02T00:37:25;6.20;99.90
21849;DHT22;11089;49.852;19.700;2024-03-02T00:40:28;6.20;99.90
21849;DHT22;11089;49.852;19.700;2024-03-02T00:46:45;6.00;99.90
21849;DHT22;11089;49.852;19.700;2024-03-02T00:49:47;5.90;99.90
21849;DHT22;11089;49.852;19.700;2024-03-02T00:52:48;5.80;99.90
21849;DHT22;11089;49.852;19.700;2024-03-02T00:55:50;5.80;99.90
21849;DHT22;11089;49.852;19.700;2024-03-02T00:58:51;5.80;99.90
21849;DHT22;11089;49.852;19.700;2024-03-02T01:01:52;5.60;99.90
21849;DHT22;11089;49.852;19.700;2024-03-02T01:04:54;5.70;99.90
21849;DHT22;11089;49.852;19.700;2024-03-02T01:07:55;5.60;99.90
21849;DHT22;11089;49.852;19.700;2024-03-02T01:10:56;5.60;99.90
21849;DHT22;11089;49.852;19.700;2024-03-02T01:13:57;5.50;99.90
21849;DHT22;11089;49.852;19.700;2024-03-02T01:16:58;5.40;99.90
21849;DHT22;11089;49.852;19.700;2024-03-02T01:19:59;5.60;99.90
21849;DHT22;11089;49.852;19.700;2024-03-02T01:23:00;5.60;99.90
21849;DHT22;11089;49.852;19.700;2024-03-02T01:26:01;5.50;99.90
21849;DHT22;11089;49.852;19.700;2024-03-02T01:29:02;5.50;99.90
21849;DHT22;11089;49.852;19.700;2024-03-02T01:32:03;5.60;99.90
21849;DHT22;11089;49.852;19.700;2024-03-02T01:35:05;5.60;99.90
21849;DHT22;11089;49.852;19.700;2024-03-02T01:38:06;5.60;99.90
21849;DHT22;11089;49.852;19.700;2024-03-02T01:41:07;5.70;99.90
21849;DHT22;11089;49.852;19.700;2024-03-02T01:44:08;5.70;99.90
21849;DHT22;11089;49.852;19.700;2024-03-02T01:47:09;5.80;99.90
21849;DHT22;11089;49.852;19.700;2024-03-02T01:50:11;5.70;99.90
21849;DHT22;11089;49.852;19.700;2024-03-02T01:53:12;5.70;99.90
21849;DHT22;11089;49.852;19.700;2024-03-02T01:56:13;5.50;99.90
21849;DHT22;11089;49.852;19.700;2024-03-02T01:59:14;5.50;99.90
21849;DHT22;11089;49.852;19.700;2024-03-02T02:02:15;5.40;99.90
21849;DHT22;11089;49.852;19.700;2024-03-02T02:05:17;5.50;99.90
21849;DHT22;11089;49.852;19.700;2024-03-02T02:08:18;5.40;99.90
21849;DHT22;11089;49.852;19.700;2024-03-02T02:11:19;5.40;99.90
21849;DHT22;11089;49.852;19.700;2024-03-02T02:14:20;5.30;99.90
21849;DHT22;11089;49.852;19.700;2024-03-02T02:17:21;5.30;99.90
21849;DHT22;11089;49.852;19.700;2024-03-02T02:20:22;5.30;99.90
21849;DHT22;11089;49.852;19.700;2024-03-02T02:23:22;5.30;99.90
21849;DHT22;11089;49.852;19.700;2024-03-02T02:26:23;5.30;99.90
21849;DHT22;11089;49.852;19.700;2024-03-02T02:29:24;5.20;99.90
21849;DHT22;11089;49.852;19.700;2024-03-02T02:32:25;5.30;99.90
21849;DHT22;11089;49.852;19.700;2024-03-02T02:35:26;5.20;99.90
21849;DHT22;11089;49.852;19.700;2024-03-02T02:38:27;5.20;99.90
21849;DHT22;11089;49.852;19.700;2024-03-02T02:41:28;5.30;99.90
21849;DHT22;11089;49.852;19.700;2024-03-02T02:44:29;5.20;99.90
21849;DHT22;11089;49.852;19.700;2024-03-02T02:47:30;5.30;99.90
21849;DHT22;11089;49.852;19.700;2024-03-02T02:50:31;5.30;99.90
21849;DHT22;11089;49.852;19.700;2024-03-02T02:53:32;5.30;99.90
21849;DHT22;11089;49.852;19.700;2024-03-02T02:56:35;5.30;99.90
21849;DHT22;11089;49.852;19.700;2024-03-02T02:59:36;5.30;99.90
21849;DHT22;11089;49.852;19.700;2024-03-02T03:02:45;5.30;99.90
21849;DHT22;11089;49.852;19.700;2024-03-02T03:05:46;5.30;99.90
21849;DHT22;11089;49.852;19.700;2024-03-02T03:08:47;5.40;99.90
21849;DHT22;11089;49.852;19.700;2024-03-02T03:11:48;5.30;99.90
21849;DHT22;11089;49.852;19.700;2024-03-02T03:14:49;5.40;99.90
21849;DHT22;11089;49.852;19.700;2024-03-02T03:17:50;5.30;99.90
21849;DHT22;11089;49.852;19.700;2024-03-02T03:20:51;5.20;99.90
21849;DHT22;11089;49.852;19.700;2024-03-02T03:23:52;5.20;99.90
21849;DHT22;11089;49.852;19.700;2024-03-02T03:26:53;5.20;99.90
21849;DHT22;11089;49.852;19.700;2024-03-02T03:29:53;5.20;99.90
21849;DHT22;11089;49.852;19.700;2024-03-02T03:32:54;5.30;99.90
21849;DHT22;11089;49.852;19.700;2024-03-02T03:35:55;5.40;99.90
21849;DHT22;11089;49.852;19.700;2024-03-02T03:38:56;5.40;99.90
21849;DHT22;11089;49.852;19.700;2024-03-02T03:41:58;5.40;99.90
21849;DHT22;11089;49.852;19.700;2024-03-02T03:44:59;5.30;99.90
21849;DHT22;11089;49.852;19.700;2024-03-02T03:47:59;5.10;99.90
21849;DHT22;11089;49.852;19.700;2024-03-02T03:51:00;5.00;99.90
21849;DHT22;11089;49.852;19.700;2024-03-02T03:54:01;5.00;99.90
21849;DHT22;11089;49.852;19.700;2024-03-02T03:57:02;5.10;99.90
21849;DHT22;11089;49.852;19.700;2024-03-02T04:00:03;5.20;99.90
21849;DHT22;11089;49.852;19.700;2024-03-02T04:03:05;5.20;99.90
21849;DHT22;11089;49.852;19.700;2024-03-02T04:06:05;5.10;99.90
21849;DHT22;11089;49.852;19.700;2024-03-02T04:09:06;5.00;99.90
21849;DHT22;11089;49.852;19.700;2024-03-02T04:12:07;4.90;99.90
21849;DHT22;11089;49.852;19.700;2024-03-02T04:15:08;4.80;99.90
21849;DHT22;11089;49.852;19.700;2024-03-02T04:18:09;4.90;99.90
21849;DHT22;11089;49.852;19.700;2024-03-02T04:21:10;4.90;99.90
21849;DHT22;11089;49.852;19.700;2024-03-02T04:24:11;4.90;99.90
21849;DHT22;11089;49.852;19.700;2024-03-02T04:27:12;5.00;99.90
21849;DHT22;11089;49.852;19.700;2024-03-02T04:30:13;5.10;99.90
21849;DHT22;11089;49.852;19.700;2024-03-02T04:33:14;5.00;99.90
21849;DHT22;11089;49.852;19.700;2024-03-02T04:36:15;5.10;99.90
21849;DHT22;11089;49.852;19.700;2024-03-02T04:39:16;5.10;99.90
21849;DHT22;11089;49.852;19.700;2024-03-02T04:42:17;5.00;99.90
21849;DHT22;11089;49.852;19.700;2024-03-02T04:45:18;5.00;99.90
21849;DHT22;11089;49.852;19.700;2024-03-02T04:48:19;5.00;99.90
21849;DHT22;11089;49.852;19.700;2024-03-02T04:51:20;5.00;99.90
21849;DHT22;11089;49.852;19.700;2024-03-02T04:54:21;5.00;99.90
21849;DHT22;11089;49.852;19.700;2024-03-02T04:57:22;5.10;99.90
21849;DHT22;11089;49.852;19.700;2024-03-02T05:00:22;5.10;99.90
21849;DHT22;11089;49.852;19.700;2024-03-02T05:03:23;5.00;99.90
21849;DHT22;11089;49.852;19.700;2024-03-02T05:06:25;5.10;99.90
21849;DHT22;11089;49.852;19.700;2024-03-02T05:09:25;5.00;99.90
21849;DHT22;11089;49.852;19.700;2024-03-02T05:12:31;5.00;99.90
21849;DHT22;11089;49.852;19.700;2024-03-02T05:15:32;5.00;99.90
21849;DHT22;11089;49.852;19.700;2024-03-02T05:18:33;5.00;99.90
21849;DHT22;11089;49.852;19.700;2024-03-02T05:21:35;5.10;99.90
21849;DHT22;11089;49.852;19.700;2024-03-02T05:24:35;5.00;99.90
21849;DHT22;11089;49.852;19.700;2024-03-02T05:27:37;4.90;99.90
21849;DHT22;11089;49.852;19.700;2024-03-02T05:30:38;4.80;99.90
21849;DHT22;11089;49.852;19.700;2024-03-02T05:33:39;4.70;99.90
21849;DHT22;11089;49.852;19.700;2024-03-02T05:36:40;4.80;99.90
21849;DHT22;11089;49.852;19.700;2024-03-02T05:39:40;4.90;99.90
21849;DHT22;11089;49.852;19.700;2024-03-02T05:42:41;4.90;99.90
21849;DHT22;11089;49.852;19.700;2024-03-02T05:45:42;5.00;99.90
21849;DHT22;11089;49.852;19.700;2024-03-02T05:48:43;5.00;99.90
21849;DHT22;11089;49.852;19.700;2024-03-02T05:51:44;5.10;99.90
21849;DHT22;11089;49.852;19.700;2024-03-02T05:54:45;5.10;99.90
21849;DHT22;11089;49.852;19.700;2024-03-02T05:57:46;5.00;99.90
21849;DHT22;11089;49.852;19.700;2024-03-02T06:01:04;4.90;99.90
21849;DHT22;11089;49.852;19.700;2024-03-02T06:04:06;4.80;99.90
21849;DHT22;11089;49.852;19.700;2024-03-02T06:07:07;4.90;99.90
21849;DHT22;11089;49.852;19.700;2024-03-02T06:10:08;5.00;99.90
21849;DHT22;11089;49.852;19.700;2024-03-02T06:13:09;5.10;99.90
21849;DHT22;11089;49.852;19.700;2024-03-02T06:16:10;5.20;99.90
21849;DHT22;11089;49.852;19.700;2024-03-02T06:19:11;5.20;99.90
21849;DHT22;11089;49.852;19.700;2024-03-02T06:22:12;5.00;99.90
21849;DHT22;11089;49.852;19.700;2024-03-02T06:25:13;5.10;99.90
21849;DHT22;11089;49.852;19.700;2024-03-02T06:28:14;5.10;99.90
21849;DHT22;11089;49.852;19.700;2024-03-02T06:31:16;5.20;99.90
21849;DHT22;11089;49.852;19.700;2024-03-02T06:34:17;5.20;99.90
21849;DHT22;11089;49.852;19.700;2024-03-02T06:37:18;5.10;99.90
21849;DHT22;11089;49.852;19.700;2024-03-02T06:40:18;5.30;99.90
21849;DHT22;11089;49.852;19.700;2024-03-02T06:43:19;5.40;99.90
21849;DHT22;11089;49.852;19.700;2024-03-02T06:46:23;5.40;99.90
21849;DHT22;11089;49.852;19.700;2024-03-02T06:49:24;5.50;99.90
21849;DHT22;11089;49.852;19.700;2024-03-02T06:52:25;5.50;99.90
21849;DHT22;11089;49.852;19.700;2024-03-02T06:55:26;5.50;99.90
21849;DHT22;11089;49.852;19.700;2024-03-02T06:58:27;5.50;99.90
21849;DHT22;11089;49.852;19.700;2024-03-02T07:01:28;5.50;99.90
21849;DHT22;11089;49.852;19.700;2024-03-02T07:04:29;5.60;99.90
21849;DHT22;11089;49.852;19.700;2024-03-02T07:07:30;5.70;99.90
21849;DHT22;11089;49.852;19.700;2024-03-02T07:10:32;5.80;99.90
21849;DHT22;11089;49.852;19.700;2024-03-02T07:13:33;5.80;99.90
21849;DHT22;11089;49.852;19.700;2024-03-02T07:16:34;5.80;99.90
21849;DHT22;11089;49.852;19.700;2024-03-02T07:19:39;5.90;99.90
21849;DHT22;11089;49.852;19.700;2024-03-02T07:22:40;6.00;99.90
21849;DHT22;11089;49.852;19.700;2024-03-02T07:25:41;6.00;99.90
21849;DHT22;11089;49.852;19.700;2024-03-02T07:28:42;6.00;99.90
21849;DHT22;11089;49.852;19.700;2024-03-02T07:31:44;6.10;99.90
21849;DHT22;11089;49.852;19.700;2024-03-02T07:34:45;6.10;99.90
21849;DHT22;11089;49.852;19.700;2024-03-02T07:37:46;6.10;99.90
21849;DHT22;11089;49.852;19.700;2024-03-02T07:40:48;6.20;99.90
21849;DHT22;11089;49.852;19.700;2024-03-02T07:43:52;6.20;99.90
21849;DHT22;11089;49.852;19.700;2024-03-02T07:46:53;6.30;99.90
21849;DHT22;11089;49.852;19.700;2024-03-02T07:49:54;6.30;99.90
21849;DHT22;11089;49.852;19.700;2024-03-02T07:52:55;6.30;99.90
21849;DHT22;11089;49.852;19.700;2024-03-02T07:55:56;6.20;99.90
21849;DHT22;11089;49.852;19.700;2024-03-02T07:59:02;6.30;99.90
21849;DHT22;11089;49.852;19.700;2024-03-02T08:02:03;6.30;99.90
21849;DHT22;11089;49.852;19.700;2024-03-02T08:05:04;6.40;99.90
21849;DHT22;11089;49.852;19.700;2024-03-02T08:08:05;6.50;99.90
21849;DHT22;11089;49.852;19.700;2024-03-02T08:11:06;6.50;99.90
21849;DHT22;11089;49.852;19.700;2024-03-02T08:14:07;6.50;99.90
21849;DHT22;11089;49.852;19.700;2024-03-02T08:17:08;6.50;99.90
21849;DHT22;11089;49.852;19.700;2024-03-02T08:20:10;6.50;99.90
21849;DHT22;11089;49.852;19.700;2024-03-02T08:23:12;6.50;99.90
21849;DHT22;11089;49.852;19.700;2024-03-02T08:26:12;6.50;99.90
21849;DHT22;11089;49.852;19.700;2024-03-02T08:29:13;6.50;99.90
21849;DHT22;11089;49.852;19.700;2024-03-02T08:32:14;6.50;99.90
21849;DHT22;11089;49.852;19.700;2024-03-02T08:35:17;6.60;99.90
21849;DHT22;11089;49.852;19.700;2024-03-02T08:38:18;6.60;99.90
21849;DHT22;11089;49.852;19.700;2024-03-02T08:41:19;6.60;99.90
21849;DHT22;11089;49.852;19.700;2024-03-02T08:44:20;6.70;99.90
21849;DHT22;11089;49.852;19.700;2024-03-02T08:47:22;6.70;99.90
21849;DHT22;11089;49.852;19.700;2024-03-02T08:50:23;6.70;99.90
21849;DHT22;11089;49.852;19.700;2024-03-02T08:53:24;6.70;99.90
21849;DHT22;11089;49.852;19.700;2024-03-02T08:56:25;6.70;99.90
21849;DHT22;11089;49.852;19.700;2024-03-02T08:59:26;6.80;99.90
21849;DHT22;11089;49.852;19.700;2024-03-02T09:02:28;6.90;99.90
21849;DHT22;11089;49.852;19.700;2024-03-02T09:05:29;6.90;99.90
21849;DHT22;11089;49.852;19.700;2024-03-02T09:08:30;7.00;99.90
21849;DHT22;11089;49.852;19.700;2024-03-02T09:11:31;7.00;99.90
21849;DHT22;11089;49.852;19.700;2024-03-02T09:14:33;7.00;99.90
21849;DHT22;11089;49.852;19.700;2024-03-02T09:17:34;7.00;99.90
21849;DHT22;11089;49.852;19.700;2024-03-02T09:20:35;7.00;99.90
21849;DHT22;11089;49.852;19.700;2024-03-02T09:23:36;7.00;99.90
21849;DHT22;11089;49.852;19.700;2024-03-02T09:26:37;7.00;99.90
21849;DHT22;11089;49.852;19.700;2024-03-02T09:29:38;7.10;99.90
21849;DHT22;11089;49.852;19.700;2024-03-02T09:32:39;7.10;99.90
21849;DHT22;11089;49.852;19.700;2024-03-02T09:35:40;7.20;99.90
21849;DHT22;11089;49.852;19.700;2024-03-02T09:38:41;7.20;99.90
21849;DHT22;11089;49.852;19.700;2024-03-02T09:41:42;7.20;99.90
21849;DHT22;11089;49.852;19.700;2024-03-02T09:44:43;7.30;99.90
21849;DHT22;11089;49.852;19.700;2024-03-02T09:47:44;7.30;99.90
21849;DHT22;11089;49.852;19.700;2024-03-02T09:50:45;7.30;99.90
21849;DHT22;11089;49.852;19.700;2024-03-02T09:53:47;7.40;99.90
21849;DHT22;11089;49.852;19.700;2024-03-02T09:56:50;7.40;99.90
21849;DHT22;11089;49.852;19.700;2024-03-02T09:59:51;7.50;99.90
21849;DHT22;11089;49.852;19.700;2024-03-02T10:02:52;7.50;99.90
21849;DHT22;11089;49.852;19.700;2024-03-02T10:05:53;7.60;99.90
21849;DHT22;11089;49.852;19.700;2024-03-02T10:08:55;7.70;99.90
21849;DHT22;11089;49.852;19.700;2024-03-02T10:12:04;7.70;99.90
21849;DHT22;11089;49.852;19.700;2024-03-02T10:15:06;7.80;99.90
21849;DHT22;11089;49.852;19.700;2024-03-02T10:18:12;7.90;99.90
21849;DHT22;11089;49.852;19.700;2024-03-02T10:21:13;7.90;99.90
21849;DHT22;11089;49.852;19.700;2024-03-02T10:24:16;7.90;99.90
21849;DHT22;11089;49.852;19.700;2024-03-02T10:27:23;8.10;99.90
21849;DHT22;11089;49.852;19.700;2024-03-02T10:30:24;8.10;99.90
21849;DHT22;11089;49.852;19.700;2024-03-02T10:33:25;8.30;99.90
21849;DHT22;11089;49.852;19.700;2024-03-02T10:36:26;8.30;99.90
21849;DHT22;11089;49.852;19.700;2024-03-02T10:39:28;8.30;99.90
21849;DHT22;11089;49.852;19.700;2024-03-02T10:42:29;8.40;99.90
21849;DHT22;11089;49.852;19.700;2024-03-02T10:45:30;8.40;99.90
21849;DHT22;11089;49.852;19.700;2024-03-02T10:48:33;8.50;99.90
21849;DHT22;11089;49.852;19.700;2024-03-02T10:51:35;8.60;99.90
21849;DHT22;11089;49.852;19.700;2024-03-02T10:54:37;8.70;99.90
21849;DHT22;11089;49.852;19.700;2024-03-02T10:57:51;8.80;99.90
21849;DHT22;11089;49.852;19.700;2024-03-02T11:00:52;8.80;99.90
21849;DHT22;11089;49.852;19.700;2024-03-02T11:03:54;9.00;99.90
21849;DHT22;11089;49.852;19.700;2024-03-02T11:07:08;9.00;99.90
21849;DHT22;11089;49.852;19.700;2024-03-02T11:10:11;9.10;99.90
21849;DHT22;11089;49.852;19.700;2024-03-02T11:13:12;9.20;99.90
21849;DHT22;11089;49.852;19.700;2024-03-02T11:16:27;9.30;99.90
21849;DHT22;11089;49.852;19.700;2024-03-02T11:19:34;9.40;99.90
21849;DHT22;11089;49.852;19.700;2024-03-02T11:22:36;9.40;99.90
21849;DHT22;11089;49.852;19.700;2024-03-02T11:25:37;9.50;99.90
21849;DHT22;11089;49.852;19.700;2024-03-02T11:28:40;9.40;99.90
21849;DHT22;11089;49.852;19.700;2024-03-02T11:31:58;9.50;99.90
21849;DHT22;11089;49.852;19.700;2024-03-02T11:35:02;9.50;99.90
21849;DHT22;11089;49.852;19.700;2024-03-02T11:38:03;9.50;99.90
21849;DHT22;11089;49.852;19.700;2024-03-02T11:41:08;9.50;99.90
21849;DHT22;11089;49.852;19.700;2024-03-02T11:44:09;9.50;99.90
21849;DHT22;11089;49.852;19.700;2024-03-02T11:47:16;9.40;99.90
21849;DHT22;11089;49.852;19.700;2024-03-02T11:50:41;9.40;99.90
21849;DHT22;11089;49.852;19.700;2024-03-02T11:53:42;9.30;99.90
21849;DHT22;11089;49.852;19.700;2024-03-02T11:56:45;9.30;99.90
21849;DHT22;11089;49.852;19.700;2024-03-02T11:59:46;9.30;99.90
21849;DHT22;11089;49.852;19.700;2024-03-02T12:03:16;9.30;99.90
21849;DHT22;11089;49.852;19.700;2024-03-02T12:06:17;9.30;99.90
21849;DHT22;11089;49.852;19.700;2024-03-02T12:09:21;9.40;99.90
21849;DHT22;11089;49.852;19.700;2024-03-02T12:12:22;9.30;99.90
21849;DHT22;11089;49.852;19.700;2024-03-02T12:15:27;9.40;99.90
21849;DHT22;11089;49.852;19.700;2024-03-02T12:18:29;9.40;99.90
21849;DHT22;11089;49.852;19.700;2024-03-02T12:21:30;9.40;99.90
21849;DHT22;11089;49.852;19.700;2024-03-02T12:24:31;9.50;99.90
21849;DHT22;11089;49.852;19.700;2024-03-02T12:27:32;9.50;99.90
21849;DHT22;11089;49.852;19.700;2024-03-02T12:30:35;9.70;99.90
21849;DHT22;11089;49.852;19.700;2024-03-02T12:33:36;9.90;99.90
21849;DHT22;11089;49.852;19.700;2024-03-02T12:36:38;9.90;99.90
21849;DHT22;11089;49.852;19.700;2024-03-02T12:39:39;10.10;99.90
21849;DHT22;11089;49.852;19.700;2024-03-02T12:42:40;10.20;99.90
21849;DHT22;11089;49.852;19.700;2024-03-02T12:45:42;10.20;99.90
21849;DHT22;11089;49.852;19.700;2024-03-02T12:48:43;10.20;99.90
21849;DHT22;11089;49.852;19.700;2024-03-02T12:51:44;10.30;99.90
21849;DHT22;11089;49.852;19.700;2024-03-02T12:54:48;10.30;99.90
21849;DHT22;11089;49.852;19.700;2024-03-02T12:57:50;10.40;99.90
21849;DHT22;11089;49.852;19.700;2024-03-02T13:01:06;10.50;99.90
21849;DHT22;11089;49.852;19.700;2024-03-02T13:04:09;10.60;99.90
21849;DHT22;11089;49.852;19.700;2024-03-02T13:07:11;10.60;99.90
21849;DHT22;11089;49.852;19.700;2024-03-02T13:10:14;10.70;99.90
21849;DHT22;11089;49.852;19.700;2024-03-02T13:13:15;10.70;99.90
21849;DHT22;11089;49.852;19.700;2024-03-02T13:16:17;10.90;99.90
21849;DHT22;11089;49.852;19.700;2024-03-02T13:19:19;11.00;99.90
21849;DHT22;11089;49.852;19.700;2024-03-02T13:22:20;11.20;99.90
21849;DHT22;11089;49.852;19.700;2024-03-02T13:25:22;11.30;99.90
21849;DHT22;11089;49.852;19.700;2024-03-02T13:28:23;11.40;99.90
21849;DHT22;11089;49.852;19.700;2024-03-02T13:31:24;11.50;99.90
21849;DHT22;11089;49.852;19.700;2024-03-02T13:34:25;11.60;99.90
21849;DHT22;11089;49.852;19.700;2024-03-02T13:37:26;11.60;99.90
21849;DHT22;11089;49.852;19.700;2024-03-02T13:40:27;11.70;99.90
21849;DHT22;11089;49.852;19.700;2024-03-02T13:43:28;11.70;99.90
21849;DHT22;11089;49.852;19.700;2024-03-02T13:46:32;11.80;99.90
21849;DHT22;11089;49.852;19.700;2024-03-02T13:49:33;11.90;99.90
21849;DHT22;11089;49.852;19.700;2024-03-02T13:52:36;12.00;99.90
21849;DHT22;11089;49.852;19.700;2024-03-02T13:55:37;12.00;99.90
21849;DHT22;11089;49.852;19.700;2024-03-02T13:58:38;12.00;99.90
21849;DHT22;11089;49.852;19.700;2024-03-02T14:01:39;12.00;99.90
21849;DHT22;11089;49.852;19.700;2024-03-02T14:04:40;12.00;99.90
21849;DHT22;11089;49.852;19.700;2024-03-02T14:07:42;12.00;99.90
21849;DHT22;11089;49.852;19.700;2024-03-02T14:10:43;12.00;99.90
21849;DHT22;11089;49.852;19.700;2024-03-02T14:13:44;11.90;99.90
21849;DHT22;11089;49.852;19.700;2024-03-02T14:16:50;11.90;99.90
21849;DHT22;11089;49.852;19.700;2024-03-02T14:19:51;11.80;99.90
21849;DHT22;11089;49.852;19.700;2024-03-02T14:22:54;11.80;99.90
21849;DHT22;11089;49.852;19.700;2024-03-02T14:25:55;11.80;99.90
21849;DHT22;11089;49.852;19.700;2024-03-02T14:28:56;11.80;99.90
21849;DHT22;11089;49.852;19.700;2024-03-02T14:31:57;11.80;99.90
21849;DHT22;11089;49.852;19.700;2024-03-02T14:34:58;11.80;99.90
21849;DHT22;11089;49.852;19.700;2024-03-02T14:37:58;11.80;99.90
21849;DHT22;11089;49.852;19.700;2024-03-02T14:40:59;11.80;99.90
21849;DHT22;11089;49.852;19.700;2024-03-02T14:44:00;11.90;99.90
21849;DHT22;11089;49.852;19.700;2024-03-02T14:47:02;11.80;99.90
21849;DHT22;11089;49.852;19.700;2024-03-02T14:50:05;11.90;99.90
21849;DHT22;11089;49.852;19.700;2024-03-02T14:53:06;11.80;99.90
21849;DHT22;11089;49.852;19.700;2024-03-02T14:56:08;11.80;99.90
21849;DHT22;11089;49.852;19.700;2024-03-02T14:59:09;11.80;99.90
21849;DHT22;11089;49.852;19.700;2024-03-02T15:02:11;11.70;99.90
21849;DHT22;11089;49.852;19.700;2024-03-02T15:05:12;11.70;99.90
21849;DHT22;11089;49.852;19.700;2024-03-02T15:08:13;11.60;99.90
21849;DHT22;11089;49.852;19.700;2024-03-02T15:11:14;11.60;99.90
21849;DHT22;11089;49.852;19.700;2024-03-02T15:14:15;11.60;99.90
21849;DHT22;11089;49.852;19.700;2024-03-02T15:17:16;11.60;99.90
21849;DHT22;11089;49.852;19.700;2024-03-02T15:20:18;11.60;99.90
21849;DHT22;11089;49.852;19.700;2024-03-02T15:23:21;11.60;99.90
21849;DHT22;11089;49.852;19.700;2024-03-02T15:26:22;11.60;99.90
21849;DHT22;11089;49.852;19.700;2024-03-02T15:29:23;11.60;99.90
21849;DHT22;11089;49.852;19.700;2024-03-02T15:32:29;11.50;99.90
21849;DHT22;11089;49.852;19.700;2024-03-02T15:35:30;11.50;99.90
21849;DHT22;11089;49.852;19.700;2024-03-02T15:38:31;11.40;99.90
21849;DHT22;11089;49.852;19.700;2024-03-02T15:41:33;11.40;99.90
21849;DHT22;11089;49.852;19.700;2024-03-02T15:44:34;11.40;99.90
21849;DHT22;11089;49.852;19.700;2024-03-02T15:47:35;11.30;99.90
21849;DHT22;11089;49.852;19.700;2024-03-02T15:50:36;11.30;99.90
21849;DHT22;11089;49.852;19.700;2024-03-02T15:53:38;11.40;99.90
21849;DHT22;11089;49.852;19.700;2024-03-02T15:56:39;11.30;99.90
21849;DHT22;11089;49.852;19.700;2024-03-02T15:59:40;11.20;99.90
21849;DHT22;11089;49.852;19.700;2024-03-02T16:02:41;11.20;99.90
21849;DHT22;11089;49.852;19.700;2024-03-02T16:05:43;11.10;99.90
21849;DHT22;11089;49.852;19.700;2024-03-02T16:08:44;11.10;99.90
21849;DHT22;11089;49.852;19.700;2024-03-02T16:11:45;11.00;99.90
21849;DHT22;11089;49.852;19.700;2024-03-02T16:14:46;10.90;99.90
21849;DHT22;11089;49.852;19.700;2024-03-02T16:17:48;10.90;99.90
21849;DHT22;11089;49.852;19.700;2024-03-02T16:20:49;10.80;99.90
21849;DHT22;11089;49.852;19.700;2024-03-02T16:23:50;10.70;99.90
21849;DHT22;11089;49.852;19.700;2024-03-02T16:26:51;10.60;99.90
21849;DHT22;11089;49.852;19.700;2024-03-02T16:29:52;10.60;99.90
21849;DHT22;11089;49.852;19.700;2024-03-02T16:32:55;10.40;99.90
21849;DHT22;11089;49.852;19.700;2024-03-02T16:35:56;10.40;99.90
21849;DHT22;11089;49.852;19.700;2024-03-02T16:38:57;10.30;99.90
21849;DHT22;11089;49.852;19.700;2024-03-02T16:41:58;10.20;99.90
21849;DHT22;11089;49.852;19.700;2024-03-02T16:44:59;10.10;99.90
21849;DHT22;11089;49.852;19.700;2024-03-02T16:48:00;10.10;99.90
21849;DHT22;11089;49.852;19.700;2024-03-02T16:51:01;10.00;99.90
21849;DHT22;11089;49.852;19.700;2024-03-02T16:54:02;10.00;99.90
21849;DHT22;11089;49.852;19.700;2024-03-02T16:57:03;9.90;99.90
21849;DHT22;11089;49.852;19.700;2024-03-02T17:00:05;9.90;99.90
21849;DHT22;11089;49.852;19.700;2024-03-02T17:03:08;9.80;99.90
21849;DHT22;11089;49.852;19.700;2024-03-02T17:06:09;9.80;99.90
21849;DHT22;11089;49.852;19.700;2024-03-02T17:09:11;9.70;99.90
21849;DHT22;11089;49.852;19.700;2024-03-02T17:12:11;9.70;99.90
21849;DHT22;11089;49.852;19.700;2024-03-02T17:15:13;9.70;99.90
21849;DHT22;11089;49.852;19.700;2024-03-02T17:18:14;9.60;99.90
21849;DHT22;11089;49.852;19.700;2024-03-02T17:21:15;9.50;99.90
21849;DHT22;11089;49.852;19.700;2024-03-02T17:24:16;9.40;99.90
21849;DHT22;11089;49.852;19.700;2024-03-02T17:27:17;9.40;99.90
21849;DHT22;11089;49.852;19.700;2024-03-02T17:30:19;9.30;99.90
21849;DHT22;11089;49.852;19.700;2024-03-02T17:33:21;9.20;99.90
21849;DHT22;11089;49.852;19.700;2024-03-02T17:36:22;9.20;99.90
21849;DHT22;11089;49.852;19.700;2024-03-02T17:39:23;9.20;99.90
21849;DHT22;11089;49.852;19.700;2024-03-02T17:42:24;9.20;99.90
21849;DHT22;11089;49.852;19.700;2024-03-02T17:45:26;9.00;99.90
21849;DHT22;11089;49.852;19.700;2024-03-02T17:48:27;9.00;99.90
21849;DHT22;11089;49.852;19.700;2024-03-02T17:51:28;9.00;99.90
21849;DHT22;11089;49.852;19.700;2024-03-02T17:54:28;8.90;99.90
21849;DHT22;11089;49.852;19.700;2024-03-02T17:57:29;8.90;99.90
21849;DHT22;11089;49.852;19.700;2024-03-02T18:00:30;8.80;99.90
21849;DHT22;11089;49.852;19.700;2024-03-02T18:03:31;8.70;99.90
21849;DHT22;11089;49.852;19.700;2024-03-02T18:06:32;8.70;99.90
21849;DHT22;11089;49.852;19.700;2024-03-02T18:09:33;8.80;99.90
21849;DHT22;11089;49.852;19.700;2024-03-02T18:12:35;8.80;99.90
21849;DHT22;11089;49.852;19.700;2024-03-02T18:15:38;8.70;99.90
21849;DHT22;11089;49.852;19.700;2024-03-02T18:18:40;8.70;99.90
21849;DHT22;11089;49.852;19.700;2024-03-02T18:21:41;8.60;99.90
21849;DHT22;11089;49.852;19.700;2024-03-02T18:24:42;8.50;99.90
21849;DHT22;11089;49.852;19.700;2024-03-02T18:27:45;8.30;99.90
21849;DHT22;11089;49.852;19.700;2024-03-02T18:30:46;8.20;99.90
21849;DHT22;11089;49.852;19.700;2024-03-02T18:33:47;8.30;99.90
21849;DHT22;11089;49.852;19.700;2024-03-02T18:36:48;8.30;99.90
21849;DHT22;11089;49.852;19.700;2024-03-02T18:39:50;8.20;99.90
21849;DHT22;11089;49.852;19.700;2024-03-02T18:42:50;8.20;99.90
21849;DHT22;11089;49.852;19.700;2024-03-02T18:45:51;8.10;99.90
21849;DHT22;11089;49.852;19.700;2024-03-02T18:48:55;8.10;99.90
21849;DHT22;11089;49.852;19.700;2024-03-02T18:51:56;8.20;99.90
21849;DHT22;11089;49.852;19.700;2024-03-02T18:54:57;8.10;99.90
21849;DHT22;11089;49.852;19.700;2024-03-02T18:57:58;8.10;99.90
21849;DHT22;11089;49.852;19.700;2024-03-02T19:00:59;8.10;99.90
21849;DHT22;11089;49.852;19.700;2024-03-02T19:04:00;8.10;99.90
21849;DHT22;11089;49.852;19.700;2024-03-02T19:07:01;8.10;99.90